Airfield :
LOGIN :

Register | Disclaimer

   EN    FR    IT 

 










Legend :    VFR   Marginal VFR   IFR   Intensive IFR   Very Intensive IFR
Visi :
Ceiling :
>= 8 km
>= 3000ft
5 to 8 km
1000 to 3000 ft
1500m to 5 km
500 to 1000 ft
800 to 1500m
200 to 500 ft
< 800m
< 200 ft
Symbols :   Thunderstorms  Fog  Heavy snow  Heavy precipitations  Wind > 20 kt
SIGMETs :     Misc.  Thunderstorms  Icing  Turbulence  Mountain Waves  Volcanic Ashes






- Airport Elevation : 468 ft
- IATA code : GRO


LEGE - Girona Costa Brava

CURRENT METAR :
  • 110430Z 20004KT 3000 BR OVC004 09/09 Q1012

EXPIRED METARs :
  • 110400Z 20006KT 3000 BR BKN005 OVC010 09/09 Q1012
  • 110330Z 23003KT 200V260 3000 BR OVC003 09/09 Q1012
  • 110300Z VRB02KT 1500 BR BKN002 BKN017 OVC022 09/09 Q1012
  • 110230Z 21005KT 160V260 2000 BR SCT001 BKN019 10/10 Q1012
  • 110200Z VRB01KT 0500 R20/1800D R02/1000N FG BKN015 OVC030 10/10 Q1012

TAF TAF LEGE
Valid from the 11 at 00:00 until the 12 at 00:00 UTC


102300Z 1100/1124 VRB03KT 9999 BKN015 TX22/1113Z TN08/1106Z
TEMPO 1100/1107 3000 BR BKN005
PROB40
TEMPO 1100/1106 0800 FG VV002
BECMG 1107/1109 20010KT
BECMG 1116/1118 04005KT SHRA SCT020TCU
PROB40
TEMPO 1116/1120 3000 TS +SHRA SCT020CB



MET'MAP, your aeronautical weather chart ! - Copyright ORBIFLY December 2007 - Disclaimer

ORBIFLY MET'MAP TEAM :

Programming & Development : Alexandra Zaïnal
Concept & original design : Baudouin d'Aumeries
Assistance for programming : Marc-Olivier Méhu
Technical & hardware support : Manuel Goepfert

Contact : metmap@orbifly.com




SOURCES & CREDITS :

   NOAA